createdAt,value
2018-12-08T00:00:19.886Z,73.97
2018-12-08T00:02:50.250Z,72.37
2018-12-08T00:05:19.710Z,74.33
2018-12-08T00:07:48.873Z,73.53
2018-12-08T00:10:17.895Z,76.20
2018-12-08T00:12:47.002Z,73.33
2018-12-08T00:15:16.193Z,79.67
2018-12-08T00:17:45.245Z,76.47
2018-12-08T00:20:14.255Z,78.83
2018-12-08T00:22:43.303Z,81.97
2018-12-08T00:25:12.412Z,76.23
2018-12-08T00:27:41.460Z,74.13
2018-12-08T00:30:21.807Z,82.60
2018-12-08T00:32:50.819Z,75.90
2018-12-08T00:35:19.985Z,80.33
2018-12-08T00:37:49.248Z,76.70
2018-12-08T00:40:18.327Z,75.10
2018-12-08T00:42:47.526Z,76.53
2018-12-08T00:45:16.577Z,75.13
2018-12-08T00:47:45.587Z,78.27
2018-12-08T00:50:14.649Z,79.27
2018-12-08T00:52:44.082Z,77.47
2018-12-08T00:55:13.628Z,78.20
2018-12-08T00:57:42.945Z,72.97
2018-12-08T01:00:12.179Z,72.33
2018-12-08T01:02:43.201Z,74.40
2018-12-08T01:05:12.408Z,80.83
2018-12-08T01:07:41.600Z,70.13
2018-12-08T01:10:10.915Z,68.17
2018-12-08T01:12:39.952Z,69.77
2018-12-08T01:15:09.157Z,72.53
2018-12-08T01:17:38.211Z,69.27
2018-12-08T01:20:08.109Z,68.73
2018-12-08T01:22:37.215Z,63.37
2018-12-08T01:25:06.651Z,64.77
2018-12-08T01:27:37.301Z,65.77
2018-12-08T01:30:07.304Z,66.97
2018-12-08T01:32:36.321Z,61.67
2018-12-08T01:35:06.104Z,59.50
2018-12-08T01:37:35.214Z,61.70
2018-12-08T01:40:05.220Z,60.37
2018-12-08T01:42:34.216Z,58.20
2018-12-08T01:45:03.709Z,59.33
2018-12-08T01:47:32.729Z,57.20
2018-12-08T01:50:01.917Z,62.33
2018-12-08T01:52:31.673Z,57.13
2018-12-08T01:55:00.736Z,57.27
2018-12-08T01:57:29.778Z,53.03
2018-12-08T01:59:58.833Z,55.43
2018-12-08T02:02:27.857Z,55.27
2018-12-08T02:04:57.231Z,54.70
2018-12-08T02:07:26.283Z,55.43
2018-12-08T02:09:55.495Z,52.30
2018-12-08T02:12:24.493Z,51.20
2018-12-08T02:14:53.512Z,48.97
2018-12-08T02:17:22.565Z,46.43
2018-12-08T02:19:51.579Z,46.20
2018-12-08T02:22:20.610Z,44.30
2018-12-08T02:24:56.302Z,47.90
2018-12-08T02:27:25.461Z,43.07
2018-12-08T02:29:54.492Z,42.33
2018-12-08T02:32:23.582Z,41.77
2018-12-08T02:34:52.755Z,38.80
2018-12-08T02:37:21.832Z,37.17
2018-12-08T02:39:51.079Z,37.90
2018-12-08T02:42:20.127Z,35.47
2018-12-08T02:44:49.154Z,33.97
2018-12-08T02:47:18.369Z,38.17
2018-12-08T02:49:47.403Z,34.17
2018-12-08T02:52:16.492Z,35.10
2018-12-08T02:54:45.508Z,31.90
2018-12-08T02:57:14.565Z,31.23
2018-12-08T02:59:43.753Z,34.60
2018-12-08T03:02:12.846Z,31.43
2018-12-08T03:04:41.896Z,31.00
2018-12-08T03:07:11.210Z,32.73
2018-12-08T03:09:40.418Z,34.93
2018-12-08T03:12:09.580Z,32.07
2018-12-08T03:14:38.773Z,30.73
2018-12-08T03:17:07.860Z,32.10
2018-12-08T03:19:36.862Z,31.37
2018-12-08T03:22:06.023Z,30.53
2018-12-08T03:24:35.058Z,31.63
2018-12-08T03:27:04.091Z,28.57
2018-12-08T03:29:33.722Z,29.23
2018-12-08T03:32:02.783Z,31.80
2018-12-08T03:34:31.827Z,27.10
2018-12-08T03:37:00.867Z,27.70
2018-12-08T03:39:29.878Z,24.93
2018-12-08T03:41:58.958Z,25.63
2018-12-08T03:44:28.038Z,23.57
2018-12-08T03:46:57.290Z,24.90
2018-12-08T03:49:26.509Z,25.20
2018-12-08T03:51:55.540Z,24.80
2018-12-08T03:54:24.588Z,23.77
2018-12-08T03:56:53.627Z,24.63
2018-12-08T03:59:22.723Z,29.20
2018-12-08T04:01:51.889Z,23.90
2018-12-08T04:04:22.092Z,24.60
2018-12-08T04:06:51.141Z,25.53
2018-12-08T04:09:20.216Z,24.67
2018-12-08T04:11:49.255Z,27.17
2018-12-08T04:14:18.323Z,24.57
2018-12-08T04:16:47.363Z,30.87
2018-12-08T04:19:16.384Z,24.23
2018-12-08T04:21:45.425Z,23.27
2018-12-08T04:24:14.451Z,22.93
2018-12-08T04:26:43.662Z,25.23
2018-12-08T04:29:12.697Z,22.50
2018-12-08T04:31:41.779Z,21.30
2018-12-08T04:34:10.794Z,23.33
2018-12-08T04:36:39.870Z,22.10
2018-12-08T04:39:08.927Z,22.00
2018-12-08T04:41:40.340Z,22.67
2018-12-08T04:44:09.445Z,25.40
2018-12-08T04:46:38.501Z,26.37
2018-12-08T04:49:07.508Z,23.23
2018-12-08T04:51:36.535Z,23.83
2018-12-08T04:54:05.625Z,26.83
2018-12-08T04:56:34.663Z,28.60
2018-12-08T04:59:03.789Z,29.37
2018-12-08T05:01:32.806Z,27.43
2018-12-08T05:04:01.847Z,29.80
2018-12-08T05:06:31.162Z,32.73
2018-12-08T05:09:00.497Z,33.20
2018-12-08T05:11:29.526Z,30.00
2018-12-08T05:13:58.587Z,34.17
2018-12-08T05:16:28.032Z,31.43
2018-12-08T05:18:57.365Z,32.70
2018-12-08T05:21:26.657Z,34.77
2018-12-08T05:23:55.818Z,35.13
2018-12-08T05:26:24.856Z,34.47
2018-12-08T05:28:53.870Z,31.50
2018-12-08T05:31:22.910Z,33.43
2018-12-08T05:33:51.984Z,33.70
2018-12-08T05:36:21.015Z,30.97
2018-12-08T05:38:50.117Z,37.50
2018-12-08T05:41:19.117Z,34.07
2018-12-08T05:43:48.270Z,35.83
2018-12-08T05:46:17.349Z,35.23
2018-12-08T05:48:46.388Z,35.20
2018-12-08T05:51:15.416Z,34.00
2018-12-08T05:53:44.517Z,34.17
2018-12-08T05:56:13.770Z,35.00
2018-12-08T05:58:42.818Z,36.03
2018-12-08T06:01:12.012Z,34.90
2018-12-08T06:03:41.132Z,34.97
2018-12-08T06:06:10.187Z,34.63
2018-12-08T06:08:39.227Z,35.50
2018-12-08T06:11:08.240Z,36.50
2018-12-08T06:13:37.344Z,33.03
2018-12-08T06:16:06.405Z,40.80
2018-12-08T06:18:35.500Z,34.30
2018-12-08T06:21:04.538Z,35.83
2018-12-08T06:23:33.631Z,38.40
2018-12-08T06:26:21.274Z,35.80
2018-12-08T06:28:53.196Z,35.83
2018-12-08T06:31:22.474Z,34.93
2018-12-08T06:33:52.078Z,32.67
2018-12-08T06:36:21.137Z,37.33
2018-12-08T06:38:50.193Z,34.50
2018-12-08T06:41:19.286Z,35.30
2018-12-08T06:43:48.291Z,34.67
2018-12-08T06:46:17.321Z,35.33
2018-12-08T06:48:46.710Z,38.30
2018-12-08T06:51:15.742Z,34.70
2018-12-08T06:53:44.766Z,38.03
2018-12-08T06:58:53.824Z,34.67
2018-12-08T07:01:22.853Z,35.97
2018-12-08T07:03:51.902Z,36.77
2018-12-08T07:06:20.964Z,35.37
2018-12-08T07:08:49.974Z,33.43
2018-12-08T07:11:19.072Z,35.27
2018-12-08T07:13:48.237Z,34.63
2018-12-08T07:16:17.366Z,36.80
2018-12-08T07:18:46.420Z,35.80
2018-12-08T07:21:15.515Z,36.37
2018-12-08T07:23:44.665Z,38.37
2018-12-08T07:26:13.686Z,37.67
2018-12-08T07:28:42.844Z,35.20
2018-12-08T07:31:11.872Z,38.50
2018-12-08T07:33:40.937Z,36.70
2018-12-08T07:36:10.026Z,33.37
2018-12-08T07:38:39.058Z,38.37
2018-12-08T07:41:08.154Z,35.63
2018-12-08T07:43:37.217Z,30.63
2018-12-08T07:46:06.443Z,35.47
2018-12-08T07:48:36.718Z,34.23
2018-12-08T07:51:05.843Z,31.60
2018-12-08T07:53:35.031Z,32.43
2018-12-08T07:56:04.095Z,30.43
2018-12-08T07:58:33.079Z,31.30
2018-12-08T08:01:02.495Z,28.30
2018-12-08T08:03:33.359Z,26.23
2018-12-08T08:06:02.509Z,25.40
2018-12-08T08:08:32.825Z,26.33
2018-12-08T08:11:01.863Z,18.90
2018-12-08T08:13:32.201Z,23.30
2018-12-08T08:16:01.351Z,16.43
2018-12-08T08:18:30.793Z,14.37
2018-12-08T08:20:59.849Z,15.67
2018-12-08T08:23:29.386Z,11.27
2018-12-08T08:25:58.833Z,10.77
2018-12-08T08:28:27.904Z,12.10
2018-12-08T08:30:57.022Z,11.97
2018-12-08T08:33:26.154Z,11.77
2018-12-08T08:35:55.217Z,12.07
2018-12-08T08:38:24.447Z,15.80
2018-12-08T08:40:53.504Z,13.40
2018-12-08T08:43:22.788Z,10.33
2018-12-08T08:45:52.212Z,10.47
2018-12-08T08:48:21.759Z,5.77
2018-12-08T08:50:50.936Z,5.90
2018-12-08T08:53:22.446Z,5.67
2018-12-08T08:55:51.734Z,3.90
2018-12-08T08:58:21.699Z,3.93
2018-12-08T09:00:52.213Z,5.33
2018-12-08T09:03:21.674Z,3.77
2018-12-08T09:05:50.750Z,4.07
2018-12-08T09:08:19.880Z,6.00
2018-12-08T09:10:49.001Z,6.00
2018-12-08T09:13:18.094Z,7.20
2018-12-08T09:15:49.877Z,8.83
2018-12-08T09:18:19.264Z,4.50
2018-12-08T09:20:48.300Z,12.20
2018-12-08T09:23:17.438Z,12.30
2018-12-08T09:25:46.498Z,7.67
2018-12-08T09:28:15.884Z,9.73
2018-12-08T09:30:45.216Z,8.47
2018-12-08T09:33:14.342Z,11.60
2018-12-08T09:35:43.420Z,10.10
2018-12-08T09:38:12.565Z,10.47
2018-12-08T09:40:41.669Z,8.20
2018-12-08T09:43:10.765Z,15.03
2018-12-08T09:45:41.978Z,13.33
2018-12-08T09:48:10.813Z,10.67
2018-12-08T09:50:39.842Z,15.23
2018-12-08T09:53:16.752Z,15.10
2018-12-08T09:55:45.807Z,12.37
2018-12-08T09:58:14.822Z,9.87
2018-12-08T10:00:43.889Z,16.13
2018-12-08T10:03:13.012Z,15.97
2018-12-08T10:05:42.044Z,16.53
2018-12-08T10:08:11.054Z,14.97
2018-12-08T10:10:40.107Z,16.17
2018-12-08T10:13:09.210Z,17.77
2018-12-08T10:15:38.290Z,17.97
2018-12-08T10:18:07.389Z,20.10
2018-12-08T10:20:36.442Z,13.07
2018-12-08T10:23:05.722Z,12.77
2018-12-08T10:25:34.764Z,19.43
2018-12-08T10:28:03.864Z,18.33
2018-12-08T10:30:33.068Z,19.87
2018-12-08T10:33:02.081Z,16.33
2018-12-08T10:35:31.098Z,19.20
2018-12-08T10:38:00.245Z,14.23
2018-12-08T10:40:29.767Z,17.33
2018-12-08T10:42:58.878Z,17.73
2018-12-08T10:45:27.933Z,17.27
2018-12-08T10:47:56.960Z,15.20
2018-12-08T10:50:26.032Z,15.70
2018-12-08T10:52:57.058Z,23.50
2018-12-08T10:55:26.314Z,20.93
2018-12-08T10:57:55.386Z,19.43
2018-12-08T11:00:29.605Z,13.70
2018-12-08T11:03:31.099Z,18.07
2018-12-08T11:06:00.154Z,20.27
2018-12-08T11:08:29.194Z,17.33
2018-12-08T11:10:58.245Z,15.97
2018-12-08T11:13:27.444Z,17.97
2018-12-08T11:15:56.578Z,16.73
2018-12-08T11:18:25.621Z,17.03
2018-12-08T11:20:55.735Z,19.67
2018-12-08T11:23:24.885Z,18.23
2018-12-08T11:25:53.919Z,22.60
2018-12-08T11:28:22.925Z,12.53
2018-12-08T11:30:51.981Z,19.00
2018-12-08T11:33:20.992Z,15.77
2018-12-08T11:35:50.280Z,17.87
2018-12-08T11:38:19.329Z,22.70
2018-12-08T11:40:49.797Z,19.30
2018-12-08T11:43:18.935Z,20.87
2018-12-08T11:45:48.140Z,23.43
2018-12-08T11:48:17.157Z,19.87
2018-12-08T11:50:46.275Z,21.60
2018-12-08T11:53:15.383Z,21.67
2018-12-08T11:55:44.426Z,21.03
2018-12-08T11:58:13.422Z,18.17
2018-12-08T12:00:42.449Z,21.57
2018-12-08T12:03:11.489Z,19.73
2018-12-08T12:05:40.573Z,17.63
2018-12-08T12:08:09.607Z,17.47
2018-12-08T12:10:39.074Z,23.70
2018-12-08T12:13:08.217Z,19.53
2018-12-08T12:15:37.550Z,18.23
2018-12-08T12:18:08.571Z,17.37
2018-12-08T12:20:37.731Z,17.00
2018-12-08T12:23:06.958Z,21.57
2018-12-08T12:25:35.999Z,21.67
2018-12-08T12:28:05.183Z,24.63
2018-12-08T12:30:35.752Z,22.37
2018-12-08T12:33:04.976Z,13.87
2018-12-08T12:35:33.990Z,14.57
2018-12-08T12:38:03.002Z,15.73
2018-12-08T12:40:32.052Z,20.53
2018-12-08T12:43:01.105Z,20.20
2018-12-08T12:45:30.147Z,20.67
2018-12-08T12:47:59.198Z,22.40
2018-12-08T12:50:28.298Z,16.47
2018-12-08T12:52:58.657Z,17.90
2018-12-08T12:55:27.737Z,18.60
2018-12-08T12:57:56.762Z,15.43
2018-12-08T13:00:25.847Z,16.03
2018-12-08T13:02:55.183Z,16.47
2018-12-08T13:05:24.165Z,16.63
2018-12-08T13:07:53.224Z,17.87
2018-12-08T13:10:22.280Z,23.23
2018-12-08T13:12:51.328Z,19.10
2018-12-08T13:15:27.022Z,16.70
2018-12-08T13:17:56.028Z,18.67
2018-12-08T13:20:25.203Z,24.20
2018-12-08T13:22:54.472Z,12.77
2018-12-08T13:25:26.038Z,12.00
2018-12-08T13:27:56.337Z,18.50
2018-12-08T13:30:25.485Z,20.20
2018-12-08T13:32:55.767Z,17.67
2018-12-08T13:35:50.614Z,18.93
2018-12-08T13:38:20.103Z,22.50
2018-12-08T13:40:49.474Z,17.40
2018-12-08T13:43:18.676Z,21.60
2018-12-08T13:45:47.714Z,20.03
2018-12-08T13:48:18.565Z,20.33
2018-12-08T13:50:48.152Z,17.37
2018-12-08T13:53:17.216Z,17.27
2018-12-08T13:55:46.345Z,14.47
2018-12-08T13:58:15.621Z,16.57
2018-12-08T14:00:45.775Z,16.23
2018-12-08T14:03:14.927Z,22.87
2018-12-08T14:05:43.936Z,19.73
2018-12-08T14:08:13.019Z,23.37
2018-12-08T14:10:42.062Z,21.93
2018-12-08T14:13:12.150Z,17.33
2018-12-08T14:15:41.452Z,19.87
2018-12-08T14:18:11.067Z,18.53
2018-12-08T14:20:40.231Z,13.40
2018-12-08T14:23:09.283Z,18.03
2018-12-08T14:25:38.393Z,22.00
2018-12-08T14:28:07.931Z,22.13
2018-12-08T14:30:37.971Z,21.73
2018-12-08T14:33:06.994Z,18.70
2018-12-08T14:35:36.059Z,18.13
2018-12-08T14:38:12.108Z,21.27
2018-12-08T14:40:41.133Z,24.13
2018-12-08T14:43:10.311Z,24.17
2018-12-08T14:45:39.518Z,18.20
2018-12-08T14:48:09.541Z,19.20
2018-12-08T14:50:38.590Z,22.33
2018-12-08T14:53:07.664Z,22.47
2018-12-08T14:55:36.805Z,21.87
2018-12-08T14:58:06.006Z,19.90
2018-12-08T15:00:35.069Z,23.40
2018-12-08T15:03:04.401Z,24.47
2018-12-08T15:05:33.606Z,20.87
2018-12-08T15:08:02.923Z,20.30
2018-12-08T15:10:31.947Z,26.90
2018-12-08T15:13:01.031Z,22.10
2018-12-08T15:15:30.150Z,24.60
2018-12-08T15:17:59.189Z,21.90
2018-12-08T15:20:28.435Z,21.70
2018-12-08T15:22:57.502Z,23.30
2018-12-08T15:25:26.725Z,20.97
2018-12-08T15:27:57.343Z,20.30
2018-12-08T15:30:26.387Z,20.13
2018-12-08T15:32:55.822Z,23.00
2018-12-08T15:35:25.960Z,21.03
2018-12-08T15:37:55.059Z,21.13
2018-12-08T15:40:24.090Z,21.80
2018-12-08T15:42:53.102Z,21.50
2018-12-08T15:45:22.266Z,20.23
2018-12-08T15:47:51.518Z,22.60
2018-12-08T15:50:20.874Z,21.20
2018-12-08T15:52:49.932Z,21.13
2018-12-08T15:55:19.171Z,26.80
2018-12-08T15:57:48.314Z,29.93
2018-12-08T16:00:17.521Z,27.63
2018-12-08T16:02:46.765Z,29.03
2018-12-08T16:05:15.831Z,32.77
2018-12-08T16:07:44.855Z,28.90
2018-12-08T16:10:13.923Z,30.70
2018-12-08T16:12:42.990Z,37.50
2018-12-08T16:15:12.412Z,32.13
2018-12-08T16:17:41.719Z,33.83
2018-12-08T16:20:13.127Z,28.47
2018-12-08T16:22:42.739Z,35.40
2018-12-08T16:25:16.263Z,29.97
2018-12-08T16:27:46.436Z,33.10
2018-12-08T16:30:16.169Z,34.90
2018-12-08T16:32:45.909Z,30.27
2018-12-08T16:35:15.521Z,34.57
2018-12-08T16:37:44.729Z,31.67
2018-12-08T16:40:13.865Z,27.50
2018-12-08T16:42:42.970Z,28.30
2018-12-08T16:45:12.050Z,32.40
2018-12-08T16:47:41.152Z,38.80
2018-12-08T16:50:10.790Z,34.20
2018-12-08T16:52:39.847Z,34.13
2018-12-08T16:55:10.193Z,33.07
2018-12-08T16:57:39.477Z,38.97
2018-12-08T17:00:08.948Z,34.10
2018-12-08T17:02:39.251Z,32.13
2018-12-08T17:05:08.638Z,37.53
2018-12-08T17:07:37.815Z,30.90
2018-12-08T17:10:08.093Z,31.10
2018-12-08T17:12:37.317Z,37.17
2018-12-08T17:15:06.646Z,29.57
2018-12-08T17:17:35.889Z,30.63
2018-12-08T17:20:06.923Z,29.73
2018-12-08T17:22:35.974Z,29.70
2018-12-08T17:25:05.634Z,31.97
2018-12-08T17:27:34.786Z,31.17
2018-12-08T17:30:04.379Z,27.40
2018-12-08T17:32:33.693Z,30.00
2018-12-08T17:35:02.748Z,32.20
2018-12-08T17:37:31.894Z,30.43
2018-12-08T17:40:01.035Z,28.63
2018-12-08T17:42:30.678Z,26.37
2018-12-08T17:44:59.787Z,30.87
2018-12-08T17:47:29.107Z,26.27
2018-12-08T17:49:58.393Z,30.63
2018-12-08T17:52:27.418Z,33.53
2018-12-08T17:54:56.463Z,29.07
2018-12-08T17:57:25.495Z,29.40
2018-12-08T17:59:54.583Z,32.80
2018-12-08T18:02:23.590Z,29.03
2018-12-08T18:04:52.658Z,28.63
2018-12-08T18:07:21.866Z,30.63
2018-12-08T18:09:51.007Z,25.50
2018-12-08T18:12:20.219Z,26.47
2018-12-08T18:14:49.304Z,29.50
2018-12-08T18:17:18.386Z,24.87
2018-12-08T18:19:47.481Z,24.53
2018-12-08T18:22:16.588Z,28.03
2018-12-08T18:24:45.683Z,28.23
2018-12-08T18:27:14.853Z,30.13
2018-12-08T18:29:43.956Z,32.90
2018-12-08T18:32:13.014Z,28.90
2018-12-08T18:34:42.286Z,24.07
2018-12-08T18:37:11.345Z,28.13
2018-12-08T18:39:40.810Z,31.47
2018-12-08T18:42:10.034Z,28.17
2018-12-08T18:44:39.204Z,28.33
2018-12-08T18:47:08.268Z,24.27
2018-12-08T18:49:37.366Z,30.63
2018-12-08T18:52:06.436Z,24.00
2018-12-08T18:54:35.501Z,27.67
2018-12-08T18:59:48.698Z,31.10
2018-12-08T19:02:17.755Z,27.53
2018-12-08T19:04:47.077Z,30.97
2018-12-08T19:07:16.095Z,29.40
2018-12-08T19:09:45.167Z,26.90
2018-12-08T19:12:14.322Z,26.70
2018-12-08T19:14:43.338Z,29.10
2018-12-08T19:17:12.431Z,24.37
2018-12-08T19:19:41.567Z,26.90
2018-12-08T19:22:10.641Z,27.43
2018-12-08T19:24:39.917Z,30.83
2018-12-08T19:27:09.190Z,28.27
2018-12-08T19:29:38.693Z,26.87
2018-12-08T19:32:08.013Z,30.10
2018-12-08T19:34:37.234Z,31.17
2018-12-08T19:37:06.354Z,26.73
2018-12-08T19:39:35.460Z,26.60
2018-12-08T19:42:05.008Z,29.17
2018-12-08T19:44:34.450Z,25.40
2018-12-08T19:47:03.572Z,22.87
2018-12-08T19:49:32.718Z,28.40
2018-12-08T19:52:01.793Z,24.43
2018-12-08T19:54:30.834Z,25.50
2018-12-08T19:56:59.869Z,28.63
2018-12-08T19:59:28.933Z,25.23
2018-12-08T20:01:58.008Z,29.57
2018-12-08T20:04:27.166Z,26.83
2018-12-08T20:06:58.560Z,27.50
2018-12-08T20:09:27.985Z,31.53
2018-12-08T20:11:57.113Z,28.27
2018-12-08T20:14:26.121Z,25.67
2018-12-08T20:16:55.200Z,25.77
2018-12-08T20:19:24.317Z,23.70
2018-12-08T20:21:53.434Z,25.33
2018-12-08T20:24:22.529Z,24.73
2018-12-08T20:26:51.645Z,26.03
2018-12-08T20:29:20.871Z,22.77
2018-12-08T20:31:50.109Z,25.17
2018-12-08T20:34:19.150Z,26.97
2018-12-08T20:36:48.230Z,27.50
2018-12-08T20:39:17.285Z,26.03
2018-12-08T20:41:46.890Z,23.20
2018-12-08T20:44:16.007Z,22.97
2018-12-08T20:46:45.139Z,25.53
2018-12-08T20:49:14.225Z,25.23
2018-12-08T20:51:49.988Z,25.60
2018-12-08T20:54:19.267Z,26.60
2018-12-08T20:56:48.349Z,24.30
2018-12-08T20:59:17.398Z,23.07
2018-12-08T21:01:46.441Z,25.50
2018-12-08T21:04:15.533Z,24.50
2018-12-08T21:06:44.831Z,24.00
2018-12-08T21:09:20.155Z,25.67
2018-12-08T21:11:49.699Z,25.03
2018-12-08T21:14:19.493Z,28.77
2018-12-08T21:16:48.500Z,25.70
2018-12-08T21:19:17.606Z,25.70
2018-12-08T21:21:46.748Z,24.67
2018-12-08T21:24:15.789Z,25.37
2018-12-08T21:26:45.392Z,25.80
2018-12-08T21:29:14.888Z,26.00
2018-12-08T21:31:44.093Z,23.63
2018-12-08T21:34:13.109Z,32.60
2018-12-08T21:36:42.338Z,24.77
2018-12-08T21:39:12.778Z,28.33
2018-12-08T21:41:41.944Z,29.23
2018-12-08T21:44:11.194Z,26.93
2018-12-08T21:46:40.485Z,28.37
2018-12-08T21:49:09.566Z,28.90
2018-12-08T21:51:38.624Z,28.00
2018-12-08T21:54:07.684Z,28.67
2018-12-08T21:56:36.867Z,26.60
2018-12-08T21:59:06.186Z,30.07
2018-12-08T22:01:35.600Z,32.43
2018-12-08T22:04:04.647Z,28.50
2018-12-08T22:06:33.690Z,32.00
2018-12-08T22:09:04.487Z,29.00
2018-12-08T22:11:35.546Z,30.10
2018-12-08T22:14:04.719Z,29.43
2018-12-08T22:16:33.737Z,29.03
2018-12-08T22:19:02.791Z,31.07
2018-12-08T22:21:31.815Z,31.70
2018-12-08T22:24:00.866Z,25.93
2018-12-08T22:26:29.968Z,29.47
2018-12-08T22:28:59.007Z,33.47
2018-12-08T22:31:28.046Z,32.10
2018-12-08T22:33:57.143Z,28.00
2018-12-08T22:36:26.197Z,32.63
2018-12-08T22:38:55.315Z,32.80
2018-12-08T22:41:24.453Z,29.63
2018-12-08T22:43:53.494Z,35.63
2018-12-08T22:46:22.718Z,30.57
2018-12-08T22:48:51.815Z,30.23
2018-12-08T22:51:20.879Z,33.33
2018-12-08T22:53:49.941Z,34.87
2018-12-08T22:56:18.974Z,31.37
2018-12-08T22:58:48.041Z,34.80
2018-12-08T23:01:17.149Z,31.63
2018-12-08T23:03:46.634Z,35.77
2018-12-08T23:06:15.996Z,34.50
2018-12-08T23:08:45.005Z,35.57
2018-12-08T23:11:14.154Z,31.97
2018-12-08T23:13:43.170Z,37.40
2018-12-08T23:16:12.495Z,34.93
2018-12-08T23:18:41.514Z,38.80
2018-12-08T23:21:11.006Z,33.73
2018-12-08T23:23:40.146Z,39.47
2018-12-08T23:26:09.249Z,38.33
2018-12-08T23:28:38.474Z,35.17
2018-12-08T23:31:08.035Z,36.10
2018-12-08T23:33:37.358Z,37.87
2018-12-08T23:36:06.410Z,32.80
2018-12-08T23:38:35.445Z,37.47
2018-12-08T23:41:04.607Z,40.33
2018-12-08T23:43:33.901Z,34.53
2018-12-08T23:46:03.022Z,33.70
2018-12-08T23:48:32.154Z,32.93
2018-12-08T23:51:01.425Z,37.20
2018-12-08T23:53:30.476Z,39.80
2018-12-08T23:55:59.774Z,41.57
2018-12-08T23:58:28.875Z,38.57
